Time;durP1;ratioP1;P1;durP2;ratioP2;P2;SDS_P1;SDS_P2;PMS_P1;PMS_P2;Temp;Humidity;BMP_temperature;BMP_pressure;BME280_temperature;BME280_humidity;BME280_pressure;Samples;Min_cycle;Max_cycle;Signal;HPM_P1;HPM_P2
2022/10/23 00:04:48;;;;;;;123.47;21.27;;;;;;;12.32;100.00;100765.08;5205543;57;1143157;-77
2022/10/23 00:09:55;;;;;;;25.13;16.77;;;;;;;12.37;100.00;100754.58;5205216;56;1145255;-77
2022/10/23 00:15:01;;;;;;;24.13;15.47;;;;;;;12.40;100.00;100757.80;5206007;57;1143082;-77
2022/10/23 00:20:10;;;;;;;78.83;18.37;;;;;;;12.43;100.00;100763.34;5206212;57;1143400;-77
2022/10/23 00:25:17;;;;;;;19.90;11.43;;;;;;;12.43;100.00;100753.58;5206034;57;1143115;-77
2022/10/23 00:30:22;;;;;;;38.20;15.17;;;;;;;12.48;100.00;100758.52;5205643;56;1143340;-77
2022/10/23 00:35:28;;;;;;;53.37;15.33;;;;;;;12.51;100.00;100756.95;5131073;57;1143361;-77
2022/10/23 00:40:34;;;;;;;47.40;14.20;;;;;;;12.53;100.00;100747.02;5120435;57;1143435;-77
2022/10/23 00:45:40;;;;;;;16.30;12.87;;;;;;;12.60;100.00;100748.22;5120622;57;1143409;-77
2022/10/23 00:50:48;;;;;;;29.93;13.57;;;;;;;12.62;100.00;100747.62;5124031;57;1143260;-76
2022/10/23 00:55:56;;;;;;;27.10;14.93;;;;;;;12.65;100.00;100742.91;5120708;57;1143200;-77
2022/10/23 01:01:02;;;;;;;24.03;13.30;;;;;;;12.65;100.00;100736.27;5188952;57;1141360;-77
2022/10/23 01:06:35;;;;;;;36.80;15.47;;;;;;;12.67;100.00;100729.03;5226111;57;22144;-77
2022/10/23 01:12:17;;;;;;;34.73;14.67;;;;;;;12.75;100.00;100728.86;5205838;57;1141206;-77
2022/10/23 01:17:36;;;;;;;30.73;15.20;;;;;;;12.75;100.00;100731.03;5175570;57;1145262;-77
2022/10/23 01:23:14;;;;;;;28.10;13.53;;;;;;;12.77;100.00;100722.94;5096827;57;1145276;-77
2022/10/23 01:28:40;;;;;;;18.00;12.97;;;;;;;12.80;100.00;100722.21;5141333;57;1145300;-77
2022/10/23 01:33:53;;;;;;;30.73;15.33;;;;;;;12.83;100.00;100731.73;5142623;57;1145249;-77
2022/10/23 01:39:08;;;;;;;26.53;15.13;;;;;;;12.82;100.00;100722.09;5141990;56;1145402;-77
2022/10/23 01:44:36;;;;;;;31.07;16.17;;;;;;;12.85;100.00;100731.09;5141367;57;1145286;-77
2022/10/23 01:49:45;;;;;;;18.75;14.38;;;;;;;12.84;100.00;100734.23;5142398;57;1143195;-77
2022/10/23 01:54:54;;;;;;;19.50;14.10;;;;;;;12.84;100.00;100737.37;5142607;57;1143235;-77
2022/10/23 02:00:06;;;;;;;23.00;15.53;;;;;;;12.86;100.00;100734.95;5193550;56;1143262;-77
2022/10/23 02:05:23;;;;;;;21.47;14.40;;;;;;;12.87;100.00;100731.81;5065665;57;1143274;-77
2022/10/23 02:10:36;;;;;;;24.57;15.93;;;;;;;12.89;100.00;100731.20;5061500;58;1143261;-77
2022/10/23 02:15:53;;;;;;;20.63;15.87;;;;;;;12.94;100.00;100727.69;5211004;56;1143363;-77
2022/10/23 02:21:12;;;;;;;21.15;13.90;;;;;;;12.96;100.00;100735.04;5148613;56;1143303;-77
2022/10/23 02:26:27;;;;;;;23.73;16.63;;;;;;;12.97;100.00;100739.38;5138815;57;1141172;-77
2022/10/23 02:31:33;;;;;;;24.60;15.43;;;;;;;12.97;100.00;100742.03;5142864;56;1145316;-77
2022/10/23 02:36:40;;;;;;;22.10;16.73;;;;;;;12.97;100.00;100741.55;5135052;56;1145217;-77
2022/10/23 02:42:20;;;;;;;21.73;17.00;;;;;;;12.99;100.00;100745.37;4980634;59;1145556;-77
2022/10/23 02:47:41;;;;;;;27.37;17.07;;;;;;;13.02;100.00;100751.77;5006386;57;1145278;-77
2022/10/23 02:52:55;;;;;;;22.07;16.33;;;;;;;13.02;100.00;100753.94;5149068;57;1145436;-77
2022/10/23 02:58:07;;;;;;;20.93;13.70;;;;;;;13.02;100.00;100757.92;5143076;56;1145258;-77
2022/10/23 03:03:22;;;;;;;26.30;17.23;;;;;;;13.03;100.00;100762.74;5049493;58;1145273;-77
2022/10/23 03:08:30;;;;;;;32.13;17.07;;;;;;;13.03;100.00;100762.26;5034234;58;1145321;-77
2022/10/23 03:13:35;;;;;;;29.57;21.23;;;;;;;13.02;100.00;100763.23;4984751;59;1145533;-77
2022/10/23 03:18:41;;;;;;;32.23;21.80;;;;;;;13.02;100.00;100766.37;4965204;59;1145305;-77
2022/10/23 03:23:47;;;;;;;29.97;22.00;;;;;;;13.05;100.00;100767.44;4973655;59;1145360;-77
2022/10/23 03:28:54;;;;;;;25.10;18.80;;;;;;;13.04;100.00;100759.12;5036690;58;1145369;-77
2022/10/23 03:34:00;;;;;;;25.70;18.63;;;;;;;13.04;100.00;100755.14;5025959;57;1145364;-77
2022/10/23 03:39:07;;;;;;;33.97;18.77;;;;;;;13.02;100.00;100764.55;5029316;58;1145256;-77
2022/10/23 03:44:13;;;;;;;26.03;16.43;;;;;;;12.97;100.00;100760.14;4980069;58;1145572;-78
2022/10/23 03:49:20;;;;;;;25.23;13.63;;;;;;;12.97;100.00;100772.08;5057058;58;1145796;-77
2022/10/23 03:54:28;;;;;;;29.87;18.73;;;;;;;12.93;100.00;100765.34;5019582;58;1145576;-77
2022/10/23 03:59:35;;;;;;;34.03;19.60;;;;;;;12.91;100.00;100763.77;4979452;58;1145280;-77
2022/10/23 04:04:42;;;;;;;32.03;18.33;;;;;;;12.91;100.00;100781.03;5035037;58;1145257;-77
2022/10/23 04:09:48;;;;;;;40.57;23.43;;;;;;;12.90;100.00;100782.84;5018586;57;1145198;-77
2022/10/23 04:14:55;;;;;;;26.07;18.93;;;;;;;12.89;100.00;100782.48;5018845;58;1145414;-77
2022/10/23 04:20:01;;;;;;;26.33;17.43;;;;;;;12.89;100.00;100782.48;5091397;57;1145242;-77
2022/10/23 04:25:08;;;;;;;25.73;18.00;;;;;;;12.88;100.00;100788.76;5120602;57;1145327;-77
2022/10/23 04:30:14;;;;;;;29.07;16.57;;;;;;;12.84;100.00;100787.32;5048815;58;1143478;-78
2022/10/23 04:35:21;;;;;;;31.53;19.17;;;;;;;12.84;100.00;100783.82;5092536;56;1143183;-77
2022/10/23 04:40:27;;;;;;;27.13;17.32;;;;;;;12.82;100.00;100787.96;5053172;58;1143215;-77
2022/10/23 04:45:33;;;;;;;24.30;16.23;;;;;;;12.80;100.00;100789.89;5096578;58;1143261;-77
2022/10/23 04:50:39;;;;;;;26.80;17.03;;;;;;;12.76;100.00;100799.06;5096412;58;1143445;-77
2022/10/23 04:55:52;;;;;;;24.97;15.60;;;;;;;12.73;100.00;100795.81;5090152;58;1143340;-77
2022/10/23 05:01:06;;;;;;;21.47;15.20;;;;;;;12.71;100.00;100791.11;5059383;58;1143407;-77
2022/10/23 05:06:13;;;;;;;27.30;16.80;;;;;;;12.71;100.00;100801.73;5208859;56;1143324;-77
2022/10/23 05:11:23;;;;;;;23.20;16.32;;;;;;;12.71;100.00;100808.36;5151216;56;1143203;-77
2022/10/23 05:16:57;;;;;;;22.33;13.00;;;;;;;12.69;100.00;100800.52;5141802;56;1143197;-77
2022/10/23 05:22:04;;;;;;;21.30;15.03;;;;;;;12.69;100.00;100797.39;5134345;57;1145225;-78
2022/10/23 05:27:12;;;;;;;22.23;14.90;;;;;;;12.67;100.00;100798.51;5018545;57;1145258;-77
2022/10/23 05:32:19;;;;;;;19.03;14.10;;;;;;;12.67;100.00;100801.16;5021945;59;1145315;-77
2022/10/23 05:37:26;;;;;;;18.10;13.37;;;;;;;12.68;100.00;100802.81;5063277;57;1145270;-77
2022/10/23 05:42:35;;;;;;;25.50;15.80;;;;;;;12.65;100.00;100802.61;5035990;57;1145250;-77
2022/10/23 05:47:45;;;;;;;21.13;12.93;;;;;;;12.66;100.00;100807.44;4997082;57;1145500;-77
2022/10/23 05:52:52;;;;;;;21.93;14.93;;;;;;;12.66;100.00;100815.39;5171227;56;1145171;-77
2022/10/23 05:58:18;;;;;;;17.00;13.60;;;;;;;12.66;100.00;100816.24;5205631;56;1145309;-77
2022/10/23 06:03:34;;;;;;;19.87;13.87;;;;;;;12.65;100.00;100816.36;5184495;56;1145175;-78
2022/10/23 06:08:42;;;;;;;17.63;12.70;;;;;;;12.64;100.00;100826.61;5186602;56;1144730;-77
2022/10/23 06:13:48;;;;;;;22.60;13.73;;;;;;;12.63;100.00;100828.91;5167692;56;1145188;-77
2022/10/23 06:18:56;;;;;;;19.70;13.53;;;;;;;12.64;100.00;100835.91;5189118;56;1145263;-77
2022/10/23 06:24:03;;;;;;;16.27;12.67;;;;;;;12.66;100.00;100828.66;5208947;56;1145390;-76
2022/10/23 06:29:10;;;;;;;15.73;13.63;;;;;;;12.67;100.00;100833.01;5192495;56;1145390;-76
2022/10/23 06:34:18;;;;;;;22.23;14.17;;;;;;;12.67;100.00;100836.50;5205872;56;1145247;-76
2022/10/23 06:39:23;;;;;;;18.50;13.10;;;;;;;12.71;100.00;100831.77;5216634;56;1145066;-77
2022/10/23 06:44:43;;;;;;;19.23;12.77;;;;;;;12.74;100.00;100831.52;4982711;58;1145468;-77
2022/10/23 06:49:50;;;;;;;20.23;12.90;;;;;;;12.76;100.00;100830.91;4965825;58;1145503;-77
2022/10/23 06:54:55;;;;;;;17.37;13.50;;;;;;;12.75;100.00;100827.90;5011355;58;1145313;-77
2022/10/23 07:00:03;;;;;;;21.60;15.03;;;;;;;12.76;100.00;100836.23;5024469;58;1145308;-76
2022/10/23 07:05:10;;;;;;;17.80;11.90;;;;;;;12.78;100.00;100836.11;4978998;58;1145309;-76
2022/10/23 07:10:16;;;;;;;22.87;12.57;;;;;;;12.77;100.00;100835.26;4995615;58;1145025;-77
2022/10/23 07:15:25;;;;;;;20.40;12.30;;;;;;;12.75;100.00;100846.96;5009226;58;1145455;-69
2022/10/23 07:20:32;;;;;;;18.47;12.40;;;;;;;12.74;100.00;100851.91;4941408;59;1145442;-67
2022/10/23 07:25:38;;;;;;;23.83;14.43;;;;;;;12.73;100.00;100848.89;5157032;57;1145226;-69
2022/10/23 07:30:48;;;;;;;23.90;14.77;;;;;;;12.75;100.00;100850.95;5144589;57;1145252;-71
2022/10/23 07:35:55;;;;;;;30.83;17.10;;;;;;;12.77;100.00;100843.70;5139073;57;1143195;-68
2022/10/23 07:41:02;;;;;;;20.93;13.60;;;;;;;12.75;100.00;100850.95;5187927;56;1143305;-69
2022/10/23 07:46:09;;;;;;;31.03;18.57;;;;;;;12.77;100.00;100848.53;5201364;56;1143499;-66
2022/10/23 07:51:17;;;;;;;24.33;16.47;;;;;;;12.78;100.00;100845.39;5164559;56;1143194;-70
2022/10/23 07:56:31;;;;;;;18.93;13.60;;;;;;;12.81;100.00;100839.84;5152813;57;1143165;-66
2022/10/23 08:01:45;;;;;;;25.92;16.12;;;;;;;12.86;100.00;100849.09;5084834;57;1143215;-67
2022/10/23 08:06:54;;;;;;;25.40;15.30;;;;;;;12.88;100.00;100848.97;5218400;56;1143195;-69
2022/10/23 08:12:01;;;;;;;18.10;13.40;;;;;;;12.91;100.00;100867.31;5215692;56;1143205;-66
2022/10/23 08:17:08;;;;;;;23.17;15.73;;;;;;;12.93;100.00;100864.05;5240045;56;1143438;-68
2022/10/23 08:22:33;;;;;;;30.03;16.90;;;;;;;12.92;100.00;100875.63;5219592;56;1141096;-70
2022/10/23 08:27:40;;;;;;;24.20;13.85;;;;;;;12.92;100.00;100877.80;5210335;56;1145228;-66
2022/10/23 08:32:46;;;;;;;23.37;16.33;;;;;;;12.93;100.00;100873.34;5041897;57;1145346;-69
2022/10/23 08:37:53;;;;;;;20.82;15.32;;;;;;;12.96;100.00;100877.92;5024496;58;1145287;-68
2022/10/23 08:43:07;;;;;;;17.10;14.07;;;;;;;13.02;100.00;100882.71;5063468;57;1145238;-64
2022/10/23 08:48:35;;;;;;;24.63;17.10;;;;;;;13.02;100.00;100880.54;5148053;56;1145249;-68
2022/10/23 08:54:09;;;;;;;25.67;17.20;;;;;;;13.03;100.00;100884.88;5209390;56;1145284;-70
2022/10/23 08:59:31;;;;;;;27.50;17.17;;;;;;;13.06;100.00;100895.26;5214018;55;1145377;-68
2022/10/23 09:04:36;;;;;;;22.70;16.33;;;;;;;13.10;100.00;100899.36;5154890;57;1145275;-70
2022/10/23 09:09:58;;;;;;;31.43;17.53;;;;;;;13.14;100.00;100888.01;5124228;57;1145373;-68
2022/10/23 09:15:38;;;;;;;22.37;14.57;;;;;;;13.19;100.00;100902.61;5188905;56;1145358;-69
2022/10/23 09:20:47;;;;;;;33.67;17.27;;;;;;;13.22;100.00;100898.86;5187972;56;1145310;-65
2022/10/23 09:25:56;;;;;;;19.83;14.37;;;;;;;13.25;100.00;100890.64;5165301;57;1145353;-68
2022/10/23 09:31:11;;;;;;;34.47;20.63;;;;;;;13.28;100.00;100883.27;5217625;56;1145363;-66
2022/10/23 09:36:23;;;;;;;23.30;16.30;;;;;;;13.28;100.00;100889.91;5225348;56;1143142;-67
2022/10/23 09:41:40;;;;;;;34.37;17.00;;;;;;;13.35;100.00;100900.86;5214021;56;1143128;-68
2022/10/23 09:46:52;;;;;;;20.23;14.03;;;;;;;13.36;100.00;100909.19;5238229;56;1143512;-66
2022/10/23 09:52:11;;;;;;;19.63;14.20;;;;;;;13.35;100.00;100911.48;5173274;56;1143474;-68
2022/10/23 09:57:37;;;;;;;21.17;14.90;;;;;;;13.36;100.00;100903.88;5169239;56;1143266;-66
2022/10/23 10:03:02;;;;;;;27.17;18.80;;;;;;;13.34;100.00;100905.32;5179914;56;1143504;-71
2022/10/23 10:08:53;;;;;;;30.47;16.07;;;;;;;13.36;100.00;100911.36;5138965;56;1145253;-69
2022/10/23 10:14:26;;;;;;;32.97;17.83;;;;;;;13.42;100.00;100907.36;5154357;56;1145339;-67
2022/10/23 10:19:58;;;;;;;28.20;16.27;;;;;;;13.48;100.00;100913.47;5163453;56;1145303;-68
2022/10/23 10:25:32;;;;;;;21.80;14.27;;;;;;;13.49;100.00;100919.14;5184839;56;1145316;-68
2022/10/23 10:31:06;;;;;;;46.33;22.40;;;;;;;13.49;100.00;100918.30;5178206;56;1145353;-69
2022/10/23 10:36:16;;;;;;;;;;;;;;;13.48;100.00;100910.81;5164887;56;1145316;-69
2022/10/23 10:42:07;;;;;;;38.53;18.00;;;;;;;13.56;100.00;100913.69;5219242;55;978394;-66
2022/10/23 10:47:33;;;;;;;43.50;23.00;;;;;;;13.60;100.00;100907.13;5137770;57;1141210;-68
2022/10/23 10:53:17;;;;;;;35.20;18.13;;;;;;;13.65;100.00;100900.10;5137883;57;1143310;-70
2022/10/23 10:58:52;;;;;;;32.00;18.80;;;;;;;13.68;100.00;100891.88;5161628;56;1145392;-70
2022/10/23 11:04:03;;;;;;;31.40;19.30;;;;;;;13.70;100.00;100887.27;5212530;56;1145459;-67
2022/10/23 11:09:21;;;;;;;38.60;18.30;;;;;;;13.68;100.00;100883.90;5195126;56;1145651;-76
2022/10/23 11:14:31;;;;;;;30.03;15.23;;;;;;;13.70;100.00;100885.45;5235967;56;1145238;-75
2022/10/23 11:19:49;;;;;;;18.87;12.83;;;;;;;13.73;100.00;100878.56;5234443;56;1145172;-76
2022/10/23 11:25:11;;;;;;;23.60;17.20;;;;;;;13.77;100.00;100877.78;5194966;56;1145199;-74
2022/10/23 11:30:33;;;;;;;24.37;15.00;;;;;;;13.73;100.00;100870.59;5246487;55;1145371;-74
2022/10/23 11:36:19;;;;;;;24.70;16.03;;;;;;;13.83;100.00;100875.95;5255155;55;1145506;-74
2022/10/23 11:41:32;;;;;;;24.53;16.57;;;;;;;13.83;100.00;100884.41;5253172;55;1145303;-74
2022/10/23 11:46:38;;;;;;;27.67;17.20;;;;;;;13.82;100.00;100876.08;5228048;56;1145317;-75
2022/10/23 11:51:44;;;;;;;21.63;14.57;;;;;;;13.81;100.00;100863.75;5215259;56;1143330;-74
2022/10/23 11:57:10;;;;;;;17.87;11.73;;;;;;;13.82;100.00;100868.09;5194934;55;1143179;-74
2022/10/23 12:02:39;;;;;;;26.00;14.57;;;;;;;13.85;100.00;100859.38;5207913;55;1143521;-74
2022/10/23 12:07:46;;;;;;;23.20;15.80;;;;;;;13.83;100.00;100863.14;5202611;56;1143249;-74
2022/10/23 12:12:59;;;;;;;18.43;13.03;;;;;;;13.83;100.00;100861.81;5181285;56;1143300;-74
2022/10/23 12:18:18;;;;;;;15.35;11.93;;;;;;;13.78;100.00;100850.23;5208609;56;1143316;-74
2022/10/23 12:23:48;;;;;;;13.07;9.77;;;;;;;13.81;100.00;100846.47;5172669;55;1141086;-74
2022/10/23 12:29:13;;;;;;;13.43;9.00;;;;;;;13.83;100.00;100844.53;5186930;56;1143460;-73
2022/10/23 12:34:38;;;;;;;22.10;11.43;;;;;;;13.83;100.00;100843.20;5241175;56;1143146;-75
2022/10/23 12:39:46;;;;;;;15.00;9.63;;;;;;;13.87;100.00;100837.50;5300039;55;1145294;-74
2022/10/23 12:45:11;;;;;;;17.87;9.43;;;;;;;13.93;100.00;100838.77;5286387;55;1143214;-74
2022/10/23 12:50:26;;;;;;;19.13;11.80;;;;;;;13.95;100.00;100832.83;5281019;55;1143187;-74
2022/10/23 12:55:48;;;;;;;17.83;10.53;;;;;;;14.06;100.00;100828.73;5167459;56;1145282;-74
2022/10/23 13:00:58;;;;;;;22.87;12.37;;;;;;;14.15;100.00;100827.11;5273192;55;1145195;-74
2022/10/23 13:06:05;;;;;;;15.90;11.37;;;;;;;14.18;100.00;100820.20;5250943;56;1145250;-74
2022/10/23 13:11:16;;;;;;;19.63;11.60;;;;;;;14.25;100.00;100818.18;5178118;56;1145310;-74
2022/10/23 13:16:25;;;;;;;19.77;11.53;;;;;;;14.32;100.00;100809.18;5164270;57;1145331;-74
2022/10/23 13:21:31;;;;;;;20.03;12.07;;;;;;;14.47;100.00;100798.53;5213837;56;1145272;-73
2022/10/23 13:26:44;;;;;;;26.07;13.03;;;;;;;14.47;100.00;100798.53;5205472;56;1145476;-74
2022/10/23 13:31:51;;;;;;;22.20;14.60;;;;;;;14.67;100.00;100797.56;5250372;56;1145377;-74
2022/10/23 13:37:05;;;;;;;27.07;14.33;;;;;;;14.76;100.00;100791.42;5214964;56;1145282;-74
2022/10/23 13:42:14;;;;;;;22.90;14.97;;;;;;;14.93;100.00;100796.55;5178251;56;1143207;-75
2022/10/23 13:47:21;;;;;;;24.97;13.97;;;;;;;15.16;100.00;100797.08;5148154;56;1143317;-74
2022/10/23 13:52:26;;;;;;;22.17;14.93;;;;;;;15.41;100.00;100795.17;5208401;56;1143289;-75
2022/10/23 13:57:33;;;;;;;29.47;16.37;;;;;;;15.61;100.00;100794.65;5184834;56;1143397;-74
2022/10/23 14:02:38;;;;;;;23.63;15.40;;;;;;;15.70;100.00;100798.29;5202102;56;1143193;-75
2022/10/23 14:07:44;;;;;;;27.00;14.73;;;;;;;15.64;100.00;100798.86;5158632;56;1143369;-77
2022/10/23 14:12:53;;;;;;;23.20;17.13;;;;;;;15.57;100.00;100800.44;5193731;56;1143164;-77
2022/10/23 14:17:58;;;;;;;28.07;16.83;;;;;;;15.48;100.00;100792.27;5171622;56;1143219;-77
2022/10/23 14:23:04;;;;;;;27.53;15.67;;;;;;;15.42;100.00;100792.02;5194812;56;1143372;-77
2022/10/23 14:28:10;;;;;;;28.93;17.80;;;;;;;15.37;100.00;100779.60;5159782;56;1143206;-77
2022/10/23 14:33:16;;;;;;;25.53;17.97;;;;;;;15.37;100.00;100772.45;5201440;56;1143220;-76
2022/10/23 14:38:21;;;;;;;49.27;25.53;;;;;;;15.37;100.00;100769.78;5213086;56;1143216;-76
2022/10/23 14:43:28;;;;;;;102.27;52.93;;;;;;;15.33;100.00;100767.05;5203302;56;1143626;-76
2022/10/23 14:48:36;;;;;;;34.93;21.97;;;;;;;15.30;100.00;100773.16;5205134;56;1145310;-77
2022/10/23 14:53:42;;;;;;;37.40;21.10;;;;;;;15.28;100.00;100774.62;5196943;56;1143210;-76
2022/10/23 14:58:48;;;;;;;65.27;40.37;;;;;;;15.21;100.00;100764.70;5203752;56;1143314;-76
2022/10/23 15:03:54;;;;;;;62.63;35.87;;;;;;;15.20;100.00;100765.67;5243951;56;1141199;-77
2022/10/23 15:09:00;;;;;;;46.90;27.47;;;;;;;15.09;100.00;100759.53;5227389;56;1230323;-76
2022/10/23 15:14:06;;;;;;;47.53;25.57;;;;;;;14.98;100.00;100758.33;5214713;56;1145276;-76
2022/10/23 15:19:14;;;;;;;44.10;26.20;;;;;;;14.86;100.00;100755.47;5165521;56;1145545;-76
2022/10/23 15:24:21;;;;;;;34.58;22.45;;;;;;;14.80;100.00;100750.72;5239580;56;1145323;-76
2022/10/23 15:29:27;;;;;;;27.90;19.30;;;;;;;14.66;100.00;100740.50;5330185;55;1145339;-76
2022/10/23 15:34:33;;;;;;;27.13;17.63;;;;;;;14.52;100.00;100738.22;5272718;55;1145422;-77
2022/10/23 15:39:39;;;;;;;100.25;72.42;;;;;;;14.42;100.00;100731.08;5314846;55;1145217;-76
2022/10/23 15:44:46;;;;;;;62.07;41.70;;;;;;;14.35;100.00;100721.11;5331933;55;1147408;-77
2022/10/23 15:49:52;;;;;;;66.03;40.27;;;;;;;14.27;100.00;100726.27;5310220;55;1145434;-77
2022/10/23 15:54:57;;;;;;;57.60;35.60;;;;;;;14.20;100.00;100730.47;5125134;57;1145279;-76
2022/10/23 16:00:04;;;;;;;51.80;30.37;;;;;;;14.16;100.00;100741.02;5265581;55;1145238;-77
2022/10/23 16:05:11;;;;;;;75.07;37.73;;;;;;;14.13;100.00;100740.80;5277816;55;1145378;-77
2022/10/23 16:10:17;;;;;;;84.30;57.57;;;;;;;14.05;100.00;100737.47;5273038;55;1145268;-77
2022/10/23 16:15:23;;;;;;;79.87;55.80;;;;;;;14.04;100.00;100729.66;5336235;55;1145277;-78
2022/10/23 16:20:29;;;;;;;97.73;54.43;;;;;;;14.02;100.00;100728.46;5139639;57;1145606;-77
2022/10/23 16:25:38;;;;;;;92.73;54.23;;;;;;;13.90;100.00;100725.53;5249183;55;1145277;-77
2022/10/23 16:30:45;;;;;;;112.43;76.90;;;;;;;13.80;100.00;100731.31;5238584;55;1145550;-77
2022/10/23 16:35:51;;;;;;;167.13;107.77;;;;;;;13.80;100.00;100737.12;5278701;55;1147259;-77
2022/10/23 16:40:57;;;;;;;146.93;91.47;;;;;;;13.79;100.00;100733.62;5251510;55;1149484;-77
2022/10/23 16:46:18;;;;;;;184.10;124.53;;;;;;;13.69;100.00;100738.91;5257459;55;1147400;-77
2022/10/23 16:51:29;;;;;;;139.63;82.70;;;;;;;13.61;100.00;100737.88;5251995;55;1149513;-67
2022/10/23 16:56:34;;;;;;;193.23;114.27;;;;;;;13.51;100.00;100741.83;5260620;55;1147359;-65
2022/10/23 17:01:40;;;;;;;469.17;204.07;;;;;;;13.46;100.00;100736.05;5269608;55;1149519;-69
2022/10/23 17:06:47;;;;;;;178.90;90.27;;;;;;;13.44;100.00;100734.05;5274184;55;1149474;-68
2022/10/23 17:11:53;;;;;;;139.43;72.63;;;;;;;13.40;100.00;100741.08;5263776;55;1147474;-70
2022/10/23 17:17:02;;;;;;;95.57;52.77;;;;;;;13.32;100.00;100749.68;5266322;55;1147378;-65
2022/10/23 17:22:10;;;;;;;76.70;41.43;;;;;;;13.27;100.00;100739.95;5271498;55;1145187;-68
2022/10/23 17:27:16;;;;;;;57.00;31.33;;;;;;;13.23;100.00;100737.20;5268698;55;1145456;-67
2022/10/23 17:32:22;;;;;;;49.07;27.17;;;;;;;13.18;100.00;100725.63;5263116;55;1145379;-67
2022/10/23 17:37:28;;;;;;;59.48;34.05;;;;;;;13.20;100.00;100725.02;5285628;55;1145261;-70
2022/10/23 17:42:34;;;;;;;94.00;48.17;;;;;;;13.25;100.00;100740.09;5264346;55;1145554;-69
2022/10/23 17:47:41;;;;;;;61.57;34.20;;;;;;;13.20;100.00;100736.13;5242829;56;1145376;-69
2022/10/23 17:52:48;;;;;;;77.17;38.47;;;;;;;13.16;100.00;100734.20;5207169;56;1145244;-70
2022/10/23 17:57:54;;;;;;;60.33;35.17;;;;;;;13.13;100.00;100718.53;5211169;56;1145386;-69
2022/10/23 18:03:00;;;;;;;75.23;36.43;;;;;;;13.13;100.00;100722.52;5146360;56;1143206;-70
2022/10/23 18:08:06;;;;;;;74.87;37.87;;;;;;;13.12;100.00;100727.95;5126491;57;1143311;-67
2022/10/23 18:13:12;;;;;;;44.57;27.93;;;;;;;13.12;100.00;100727.95;5197111;56;1143208;-67
2022/10/23 18:18:18;;;;;;;44.03;28.57;;;;;;;13.12;100.00;100719.50;5215764;56;1143200;-68
2022/10/23 18:23:23;;;;;;;51.40;29.13;;;;;;;13.12;100.00;100701.39;5222946;55;1143240;-73
2022/10/23 18:28:30;;;;;;;45.50;27.20;;;;;;;13.11;100.00;100694.40;5240471;56;1143391;-67
2022/10/23 18:33:35;;;;;;;42.43;27.13;;;;;;;13.10;100.00;100676.30;5178855;55;1143244;-71
2022/10/23 18:38:42;;;;;;;43.93;26.83;;;;;;;13.10;100.00;100678.11;5160597;57;1143201;-66
2022/10/23 18:43:48;;;;;;;38.10;25.77;;;;;;;13.11;100.00;100667.84;5223368;56;1143286;-67
2022/10/23 18:48:53;;;;;;;46.20;28.90;;;;;;;13.09;100.00;100651.20;5238027;56;1143258;-67
2022/10/23 18:54:02;;;;;;;52.83;30.23;;;;;;;13.09;100.00;100651.20;5232904;56;1143424;-67
2022/10/23 18:59:11;;;;;;;46.43;29.57;;;;;;;13.03;100.00;100645.91;5181405;56;1143338;-67
2022/10/23 19:04:17;;;;;;;44.63;27.30;;;;;;;12.99;100.00;100642.67;5205652;56;1143407;-66
2022/10/23 19:09:23;;;;;;;43.43;26.97;;;;;;;13.01;100.00;100638.08;5238639;56;1143445;-68
2022/10/23 19:14:29;;;;;;;40.47;26.80;;;;;;;13.00;100.00;100625.77;5213746;56;1143185;-66
2022/10/23 19:19:54;;;;;;;46.40;26.33;;;;;;;12.98;100.00;100609.16;5247720;56;1142930;-68
2022/10/23 19:25:19;;;;;;;46.13;28.67;;;;;;;13.00;100.00;100604.53;5244792;56;1145259;-73
2022/10/23 19:30:25;;;;;;;45.37;28.17;;;;;;;13.03;100.00;100593.66;5247844;55;1145298;-71
2022/10/23 19:35:31;;;;;;;41.13;27.63;;;;;;;12.97;100.00;100600.00;5210162;56;1145226;-68
2022/10/23 19:40:37;;;;;;;40.33;24.20;;;;;;;12.95;100.00;100596.15;5164937;57;1145631;-68
2022/10/23 19:45:43;;;;;;;40.47;25.17;;;;;;;12.91;100.00;100596.53;5161026;57;1145814;-69
2022/10/23 19:50:48;;;;;;;41.90;26.23;;;;;;;12.90;100.00;100608.12;5151733;56;1145546;-68
2022/10/23 19:56:03;;;;;;;38.07;23.37;;;;;;;12.92;100.00;100601.72;5224021;56;1145112;-69
2022/10/23 20:01:19;;;;;;;36.17;21.27;;;;;;;12.94;100.00;100605.56;5237750;56;1145286;-69
2022/10/23 20:06:30;;;;;;;32.97;21.00;;;;;;;12.94;100.00;100603.75;5214604;56;1145490;-66
2022/10/23 20:11:38;;;;;;;29.67;20.57;;;;;;;12.96;100.00;100603.14;5200478;56;1145864;-71
2022/10/23 20:16:46;;;;;;;35.17;21.13;;;;;;;12.99;100.00;100601.52;5169727;56;1145413;-69
2022/10/23 20:21:52;;;;;;;35.43;20.30;;;;;;;12.99;100.00;100592.23;5158291;56;1145275;-67
2022/10/23 20:26:58;;;;;;;33.30;20.50;;;;;;;13.00;100.00;100581.12;5237500;56;1145352;-71
2022/10/23 20:32:04;;;;;;;30.87;18.37;;;;;;;12.99;100.00;100570.99;5238160;56;1145270;-70
2022/10/23 20:37:10;;;;;;;27.60;17.27;;;;;;;13.00;100.00;100588.61;5209917;56;1145231;-68
2022/10/23 20:42:16;;;;;;;27.23;18.83;;;;;;;13.05;100.00;100585.56;5174394;56;1145310;-68
2022/10/23 20:47:21;;;;;;;34.93;20.23;;;;;;;13.11;100.00;100596.15;5222367;56;1145847;-69
2022/10/23 20:52:28;;;;;;;26.70;18.63;;;;;;;13.10;100.00;100582.52;5241716;56;1145498;-69
2022/10/23 20:57:34;;;;;;;29.87;18.47;;;;;;;13.09;100.00;100580.34;5250899;56;1145535;-68
2022/10/23 21:02:40;;;;;;;29.67;16.60;;;;;;;13.09;100.00;100549.81;5250976;56;1145316;-66
2022/10/23 21:07:46;;;;;;;30.63;20.83;;;;;;;13.04;100.00;100539.58;5240563;55;1145344;-72
2022/10/23 21:12:52;;;;;;;26.43;17.50;;;;;;;12.99;100.00;100540.95;5250866;55;1145322;-70
2022/10/23 21:17:58;;;;;;;30.73;18.63;;;;;;;12.95;100.00;100553.67;5250938;56;1145609;-69
2022/10/23 21:23:03;;;;;;;29.47;18.30;;;;;;;12.92;100.00;100545.13;5250976;56;1145480;-67
2022/10/23 21:28:10;;;;;;;32.63;19.73;;;;;;;12.95;100.00;100547.03;5250867;56;1145352;-70
2022/10/23 21:33:17;;;;;;;36.03;20.73;;;;;;;12.94;100.00;100539.20;5250720;56;1145358;-68
2022/10/23 21:38:22;;;;;;;26.73;19.23;;;;;;;12.92;100.00;100536.67;5201033;56;1145545;-69
2022/10/23 21:43:28;;;;;;;31.00;18.33;;;;;;;12.97;100.00;100547.75;5163902;57;1145276;-67
2022/10/23 21:48:35;;;;;;;34.87;19.57;;;;;;;12.99;100.00;100547.58;5157807;57;1145280;-68
2022/10/23 21:53:41;;;;;;;31.67;19.27;;;;;;;13.01;100.00;100531.03;5151128;57;1145447;-70
2022/10/23 21:58:47;;;;;;;28.47;17.47;;;;;;;12.97;100.00;100518.54;5087206;57;1142638;-71
2022/10/23 22:03:53;;;;;;;28.27;17.27;;;;;;;12.94;100.00;100525.44;5206566;56;1143225;-71
2022/10/23 22:09:00;;;;;;;33.20;18.50;;;;;;;12.91;100.00;100523.05;5227122;56;1143199;-67
2022/10/23 22:14:06;;;;;;;34.20;21.50;;;;;;;12.86;100.00;100515.12;5227532;56;1143211;-72
2022/10/23 22:19:16;;;;;;;30.67;17.83;;;;;;;12.78;100.00;100515.80;5223524;56;1143268;-68
2022/10/23 22:24:22;;;;;;;23.57;16.43;;;;;;;12.72;100.00;100507.52;5215217;56;1143503;-68
2022/10/23 22:29:29;;;;;;;26.73;16.03;;;;;;;12.72;100.00;100507.03;5227602;56;1143359;-69
2022/10/23 22:34:35;;;;;;;22.53;15.73;;;;;;;12.76;100.00;100510.27;5227605;56;1143301;-71
2022/10/23 22:39:41;;;;;;;32.83;18.13;;;;;;;12.78;100.00;100502.53;5102222;56;1143260;-68
2022/10/23 22:44:47;;;;;;;30.37;16.97;;;;;;;12.78;100.00;100486.61;5043956;58;1143407;-68
2022/10/23 22:49:53;;;;;;;27.00;16.20;;;;;;;12.78;100.00;100496.38;5190216;56;1143228;-69